Max, Nebraska
Current Conditions -  °F | °C
As of 12:53 AM on Thursday 29 Jan 2015 (Local Time) from KIML Reporting Station
Clear Clear  
Wind Chill: 24°   Ceiling: Unl
Heat Index: 33°   Visibility: 10mi
Dew Point: 27°   Wind: 13mph
Humidity: 78%   Direction: 360°N
Pressure: 30.29"   Gusts: NA
Location:  40.11°N, 101.4°W
Report Text: KIML 290753Z AUTO 36011KT 10SM CLR 01/M03 A3029 RMK AO2 PK WND 36027/0703 SLP261 T00061028 $
Loading
Personal Weather Stations






























Interactive Weather Map New forecast layout! Learn more

10-Day Weather Forecast

Advertisements
Track Severe Weather on mobile